METAR Data
IDs: Format: Raw Decoded Include TAF

Data at: 2018 UTC 19 May 2019

KXBP 191955Z AUTO 02004KT 10SM CLR 26/13 A2994 RMK AO2 T02610133
KXBP 191935Z AUTO 02005KT 10SM CLR 26/14 A2995 RMK AO2 T02580140
KXBP 191915Z AUTO 03005KT 10SM CLR 26/14 A2995 RMK AO2 T02560137
KXBP 191855Z AUTO 36004KT 10SM CLR 25/14 A2995 RMK AO2 T02510141
KXBP 191835Z AUTO 02005KT 10SM CLR 25/13 A2996 RMK AO2 T02500128
KXBP 191815Z AUTO 35005KT 10SM CLR 25/13 A2996 RMK AO2 T02450130
KXBP 191755Z AUTO 03007KT 10SM CLR 24/13 A2997 RMK AO2 T02430128 10243 20156
KXBP 191735Z AUTO 03004KT 10SM CLR 24/12 A2997 RMK AO2 T02410122
KXBP 191715Z AUTO 03005KT 10SM CLR 24/13 A2997 RMK AO2 T02400125
KXBP 191655Z AUTO 05005KT 10SM CLR 23/13 A2997 RMK AO2 T02340127
KXBP 191635Z AUTO 03005KT 10SM CLR 23/13 A2997 RMK AO2 T02300126
KXBP 191615Z AUTO 05008KT 10SM CLR 23/12 A2997 RMK AO2 T02250121
KXBP 191555Z AUTO 04005KT 10SM CLR 22/12 A2996 RMK AO2 T02200119
KXBP 191535Z AUTO 35003KT 10SM CLR 22/12 A2996 RMK AO2 T02150119
KXBP 191515Z AUTO 01004KT 10SM CLR 21/12 A2996 RMK AO2 LTG DSNT SW T02080116
KXBP 191455Z AUTO 00000KT 10SM CLR 20/12 A2995 RMK AO2 T02020117
KXBP 191435Z AUTO 02003KT 10SM CLR 20/12 A2994 RMK AO2 T01950120
KXBP 191415Z AUTO 35003KT 10SM CLR 19/12 A2993 RMK AO2 T01880117
KXBP 191355Z AUTO 36004KT 10SM CLR 18/11 A2993 RMK AO2 T01770113
KXBP 191335Z AUTO 02004KT 10SM CLR 18/11 A2992 RMK AO2 T01750110
KXBP 191315Z AUTO 34003KT 10SM CLR 17/11 A2992 RMK AO2 T01660108
KXBP 191255Z AUTO 36004KT 10SM CLR 16/11 A2990 RMK AO2 T01630108
KXBP 191235Z AUTO 34004KT 10SM CLR 17/11 A2990 RMK AO2 T01650108
KXBP 191215Z AUTO 36003KT 10SM CLR 16/11 A2988 RMK AO2 T01580105
KXBP 191155Z AUTO 35004KT 10SM CLR 16/11 A2987 RMK AO2 70121 T01570105 10169 20136
KXBP 191135Z AUTO 36003KT 10SM CLR 16/10 A2986 RMK AO2 T01550103
KXBP 191115Z AUTO 35004KT 10SM CLR 16/11 A2985 RMK AO2 T01570107
KXBP 191055Z AUTO 35003KT 10SM CLR 16/11 A2985 RMK AO2 T01610105
KXBP 191035Z AUTO 34006KT 10SM CLR 16/11 A2984 RMK AO2 T01640106
KXBP 191015Z AUTO 00000KT 10SM CLR 16/11 A2982 RMK AO2 T01600110
KXBP 190955Z AUTO 00000KT 10SM CLR 16/11 A2981 RMK AO2 T01580111
KXBP 190935Z AUTO 00000KT 10SM CLR 16/11 A2979 RMK AO2 T01580109
KXBP 190915Z AUTO 00000KT 10SM CLR 16/12 A2978 RMK AO2 T01610116
KXBP 190855Z AUTO 31003KT 10SM CLR 14/12 A2978 RMK AO2 T01400121
KXBP 190835Z AUTO 25003KT 10SM CLR 16/12 A2977 RMK AO2 T01560123
KXBP 190815Z AUTO 29005KT 10SM CLR 14/14 A2975 RMK AO2 T01370137
KXBP 190755Z AUTO 00000KT 10SM CLR 14/14 A2974 RMK AO2 T01400140
KXBP 190735Z AUTO 00000KT 10SM CLR 14/14 A2974 RMK AO2 T01390139
KXBP 190715Z AUTO 00000KT 10SM CLR 15/15 A2974 RMK AO2 T01480148
KXBP 190655Z AUTO 00000KT 10SM CLR 15/15 A2974 RMK AO2 T01510150
KXBP 190635Z AUTO 21003KT 10SM CLR 16/14 A2974 RMK AO2 T01600144
KXBP 190615Z AUTO 00000KT 10SM CLR 16/14 A2973 RMK AO2 T01640143
KXBP 190555Z AUTO 26004KT 10SM CLR 17/15 A2973 RMK AO2 T01660152 10255 20162 402550162
KXBP 190535Z AUTO 00000KT 10SM CLR 16/16 A2971 RMK AO2 T01640164
KXBP 190515Z AUTO 00000KT 10SM CLR 17/17 A2971 RMK AO2 T01650165
KXBP 190455Z AUTO 00000KT 10SM CLR 17/17 A2971 RMK AO2 T01700170
KXBP 190435Z AUTO 00000KT 10SM CLR 18/18 A2970 RMK AO2 T01760176
KXBP 190415Z AUTO 00000KT 10SM CLR 19/19 A2970 RMK AO2 T01880188
KXBP 190355Z AUTO 00000KT 10SM CLR 19/18 A2969 RMK AO2 T01920175
KXBP 190335Z AUTO 00000KT 10SM CLR 20/17 A2968 RMK AO2 T02030171
KXBP 190315Z AUTO 18003KT 10SM CLR 21/19 A2968 RMK AO2 T02060192
KXBP 190255Z AUTO 17004KT 10SM CLR 21/21 A2968 RMK AO2 T02130213
KXBP 190235Z AUTO 16006KT 10SM CLR 22/22 A2967 RMK AO2 T02180218
KXBP 190215Z AUTO 17006KT 10SM CLR 22/22 A2967 RMK AO2 T02210221
KXBP 190155Z AUTO 16006KT 10SM CLR 23/22 A2966 RMK AO2 T02250215
KXBP 190135Z AUTO 15004KT 10SM CLR 23/21 A2966 RMK AO2 T02300211
KXBP 190115Z AUTO 14004KT 10SM CLR 24/22 A2966 RMK AO2 T02350215
KXBP 190055Z AUTO 14004KT 10SM CLR 24/22 A2965 RMK AO2 LTG DSNT SE T02410215
KXBP 190035Z AUTO 15006KT 10SM CLR 25/22 A2965 RMK AO2 LTG DSNT SE T02460215
KXBP 190015Z AUTO 13004KT 10SM CLR 25/21 A2964 RMK AO2 T02510213
KXBP 182355Z AUTO 15005KT 10SM CLR 25/21 A2963 RMK AO2 LTG DSNT NE T02540214 10254 20182
KXBP 182335Z AUTO 16004KT 10SM CLR 25/21 A2963 RMK AO2 T02460214
KXBP 182315Z AUTO 16006KT 10SM CLR 25/21 A2962 RMK AO2 T02480209
KXBP 182255Z AUTO 13008KT 10SM SCT026 BKN033 SCT040 24/21 A2963 RMK AO2 LTG DSNT E T02440208
KXBP 182235Z AUTO 12006KT 10SM SCT022 BKN031 25/21 A2964 RMK AO2 T02470206
KXBP 182215Z AUTO 13006KT 10SM SCT022 BKN031 25/21 A2964 RMK AO2 LTG DSNT NE AND E T02530206
KXBP 182155Z AUTO 17006KT 10SM SCT022 SCT033 25/20 A2963 RMK AO2 LTG DSNT NE T02530201
KXBP 182135Z AUTO 16004KT 10SM CLR 25/20 A2963 RMK AO2 LTG DSNT NE T02510198
KXBP 182115Z AUTO 18007KT 10SM SCT050 25/20 A2963 RMK AO2 LTG DSNT NE AND E T02480197
KXBP 182055Z AUTO 18005KT 10SM BKN050 24/19 A2963 RMK AO2 LTG DSNT E T02370190
KXBP 182035Z AUTO 14003KT 10SM OVC048 23/18 A2965 RMK AO2 LTG DSNT E AND SE T02260184
KXBP 182015Z AUTO 12003KT 10SM SCT050 SCT110 22/18 A2965 RMK AO2 LTG DSNT E AND SE T02230184
KXBP 181955Z AUTO 00000KT 10SM CLR 22/18 A2965 RMK AO2 LTG DSNT NE AND E T02170183
KXBP 181935Z AUTO 24003KT 10SM CLR 20/18 A2963 RMK AO2 LTG DSNT NE THRU S T02040182
KXBP 181915Z AUTO 18003KT 10SM SCT055 20/18 A2966 RMK AO2 LTG DSNT NE THRU SE T01950180
KXBP 181855Z AUTO 18004KT 10SM CLR 19/18 A2967 RMK AO2 LTG DSNT ALQS T01890184
KXBP 181835Z AUTO 14005KT 10SM CLR 19/18 A2970 RMK AO2 LTG DSNT NE THRU S T01850177
KXBP 181815Z AUTO 19005KT 10SM VCTS CLR 18/17 A2967 RMK AO2 LTG DSNT ALQS T01820172
KXBP 181755Z AUTO 21004KT 10SM VCTS SCT120 18/17 A2966 RMK AO2 LTG DSNT ALQS 60121 T01830170 10233 20173
KXBP 181735Z AUTO 21008G18KT 190V250 10SM -TSRA BKN120 19/16 A2967 RMK AO2 LTG DSNT ALQS T01850164
KXBP 181715Z AUTO 00000KT 10SM -TSRA SCT090 BKN110 18/18 A2969 RMK AO2 LTG DSNT ALQS T01750175
KXBP 181655Z AUTO 06009G17KT 10SM -TSRA SCT065 OVC100 17/17 A2965 RMK AO2 LTG DSNT ALQS P0013 T01740174
KXBP 181635Z AUTO 06007KT 10SM -TSRA SCT026 BKN055 OVC110 18/18 A2967 RMK AO2 LTG DSNT ALQS P0013 T01750175
KXBP 181615Z AUTO 11008KT 5SM +TSRA SCT010 BKN027 OVC042 18/18 A2970 RMK AO2 LTG DSNT ALQS P0010 T01770177
KXBP 181555Z AUTO 00000KT 2 1/2SM +TSRA SCT005 BKN012 OVC026 18/18 A2976 RMK AO2 LTG DSNT ALQS P0088 T01760176
KXBP 181535Z AUTO 33010G15KT 1SM +TSRA BKN004 OVC010 18/18 A2977 RMK AO2 LTG DSNT ALQS P0058 T01790179
KXBP 181515Z AUTO 27004KT 10SM -TSRA SCT015 BKN034 OVC065 23/23 A2975 RMK AO2 LTG DSNT ALQS P0001 T02250225
KXBP 181455Z AUTO 17007KT 5SM -TSRA SCT013 SCT023 OVC050 23/23 A2973 RMK AO2 LTG DSNT ALQS P0020 60020 T02250225
KXBP 181435Z AUTO 16009G14KT 3SM TSRA SCT015 BKN027 OVC095 23/22 A2972 RMK AO2 LTG DSNT ALQS P0012 T02260219
KXBP 181415Z AUTO 17011KT 10SM -TSRA SCT017 BKN070 BKN090 23/22 A2971 RMK AO2 LTG DSNT ALQS T02280215
KXBP 181355Z AUTO 16010G14KT 10SM VCTS SCT016 BKN021 BKN070 23/21 A2969 RMK AO2 LTG DSNT ALQS T02270213
KXBP 181335Z AUTO 15011G14KT 10SM -VCTSRA BKN016 BKN025 BKN110 23/21 A2970 RMK AO2 LTG DSNT ALQS T02300212
KXBP 181315Z AUTO 16011G18KT 10SM TS SCT018 BKN100 OVC110 23/21 A2971 RMK AO2 LTG DSNT ALQS T02330210
KXBP 181255Z AUTO 16010G14KT 10SM VCTS SCT013 SCT018 OVC070 23/21 A2971 RMK AO2 LTG DSNT SW THRU N T02330210
KXBP 181235Z AUTO 17010G14KT 10SM VCTS BKN016 BKN060 23/21 A2972 RMK AO2 LTG DSNT SW THRU N T02300211
KXBP 181215Z AUTO 17010G20KT 10SM -DZ SCT014 23/21 A2970 RMK AO2 LTG DSNT SW AND W T02290211
KXBP 181155Z AUTO 16010G19KT 10SM SCT016 23/21 A2970 RMK AO2 LTG DSNT SW THRU NW T02310210 10250 20230
KXBP 181135Z AUTO 17011G17KT 10SM SCT018 BKN070 23/21 A2972 RMK AO2 LTG DSNT SW THRU NW T02310210
KXBP 181115Z AUTO 16012G17KT 10SM SCT015 SCT021 BKN040 23/21 A2971 RMK AO2 LTG DSNT SW T02310210
KXBP 181055Z AUTO 15012G17KT 10SM SCT018 SCT033 SCT043 23/21 A2971 RMK AO2 LTG DSNT E AND SW T02300210
KXBP 181035Z AUTO 16009G14KT 10SM CLR 23/21 A2971 RMK AO2 LTG DSNT SE AND W T02300210
KXBP 181015Z AUTO 14008KT 10SM SCT027 SCT032 23/21 A2971 RMK AO2 T02300210
KXBP 180955Z AUTO 15009KT 10SM TS SCT022 BKN027 BKN032 23/21 A2972 RMK AO2 LTG DSNT W THRU N T02320210
KXBP 180935Z AUTO 16008G14KT 10SM SCT018 BKN022 BKN027 24/20 A2973 RMK AO2 LTG DSNT S AND SW T02400203
KXBP 180915Z AUTO 17006KT 10SM BKN022 OVC027 24/20 A2974 RMK AO2 T02410202
KXBP 180855Z AUTO 17005KT 10SM BKN021 OVC028 24/20 A2974 RMK AO2 T02410202
KXBP 180835Z AUTO 17008KT 10SM SCT023 BKN029 24/20 A2974 RMK AO2 LTG DSNT SW T02410202